createdAt,value
2023-04-24T00:04:29.315Z,10.70
2023-04-24T00:09:31.087Z,10.63
2023-04-24T00:14:32.996Z,10.53
2023-04-24T00:19:35.423Z,10.40
2023-04-24T00:24:36.993Z,10.32
2023-04-24T00:29:38.567Z,10.12
2023-04-24T00:34:40.519Z,10.00
2023-04-24T00:39:44.470Z,10.00
2023-04-24T00:44:46.836Z,10.08
2023-04-24T00:49:48.454Z,9.97
2023-04-24T00:54:50.042Z,9.77
2023-04-24T00:59:53.284Z,9.75
2023-04-24T01:04:55.063Z,9.72
2023-04-24T01:09:56.878Z,9.51
2023-04-24T01:15:00.502Z,9.36
2023-04-24T01:20:03.349Z,9.28
2023-04-24T01:25:09.132Z,9.30
2023-04-24T01:30:11.672Z,9.29
2023-04-24T01:35:13.815Z,9.19
2023-04-24T01:40:15.474Z,9.09
2023-04-24T01:45:17.161Z,8.92
2023-04-24T01:50:19.661Z,8.88
2023-04-24T01:55:21.653Z,8.88
2023-04-24T02:00:23.488Z,8.73
2023-04-24T02:05:25.277Z,8.71
2023-04-24T02:10:26.945Z,8.75
2023-04-24T02:15:28.768Z,8.72
2023-04-24T02:20:31.707Z,8.78
2023-04-24T02:25:34.756Z,8.89
2023-04-24T02:30:36.477Z,9.03
2023-04-24T02:35:38.284Z,8.86
2023-04-24T02:40:40.323Z,8.90
2023-04-24T02:45:43.812Z,8.83
2023-04-24T02:50:45.528Z,8.90
2023-04-24T02:55:47.930Z,8.95
2023-04-24T03:00:49.633Z,9.01
2023-04-24T03:05:51.397Z,8.94
2023-04-24T03:10:53.327Z,8.99
2023-04-24T03:15:57.943Z,9.07
2023-04-24T03:20:59.721Z,9.07
2023-04-24T03:26:01.665Z,9.14
2023-04-24T03:31:04.887Z,8.99
2023-04-24T03:36:12.201Z,9.03
2023-04-24T03:41:16.417Z,8.86
2023-04-24T03:46:22.381Z,8.66
2023-04-24T03:51:31.340Z,8.67
2023-04-24T03:56:40.483Z,8.69
2023-04-24T04:01:44.221Z,8.71
2023-04-24T04:06:50.028Z,8.92
2023-04-24T04:11:51.812Z,8.99
2023-04-24T04:16:54.981Z,8.88
2023-04-24T04:21:57.308Z,8.79
2023-04-24T04:27:17.555Z,8.93
2023-04-24T04:32:25.684Z,9.09
2023-04-24T04:37:29.855Z,9.42
2023-04-24T04:42:47.128Z,9.53
2023-04-24T04:47:49.742Z,9.95
2023-04-24T04:52:51.470Z,9.92
2023-04-24T04:58:01.426Z,10.22
2023-04-24T05:03:19.074Z,10.60
2023-04-24T05:13:39.185Z,10.10
2023-04-24T05:18:47.135Z,9.98
2023-04-24T05:23:52.530Z,10.08
2023-04-24T05:29:06.894Z,10.09
2023-04-24T05:34:09.688Z,9.88
2023-04-24T05:39:16.194Z,10.25
2023-04-24T05:44:18.125Z,10.40
2023-04-24T05:49:19.801Z,10.52
2023-04-24T05:54:22.315Z,10.02
2023-04-24T05:59:24.337Z,9.84
2023-04-24T06:04:27.253Z,9.82
2023-04-24T06:09:29.121Z,9.64
2023-04-24T06:14:30.919Z,10.12
2023-04-24T06:19:48.961Z,10.21
2023-04-24T06:24:51.004Z,10.01
2023-04-24T06:29:55.610Z,10.28
2023-04-24T06:34:59.094Z,10.26
2023-04-24T06:40:01.246Z,10.44
2023-04-24T06:45:04.329Z,9.81
2023-04-24T06:50:06.584Z,9.60
2023-04-24T06:55:08.977Z,9.82
2023-04-24T07:00:11.353Z,9.69
2023-04-24T07:05:16.320Z,9.65
2023-04-24T07:10:19.184Z,9.89
2023-04-24T07:15:20.920Z,9.47
2023-04-24T07:20:22.908Z,10.43
2023-04-24T07:25:24.977Z,10.01
2023-04-24T07:30:27.069Z,10.24
2023-04-24T07:35:38.012Z,10.23
2023-04-24T07:40:39.592Z,9.63
2023-04-24T07:45:41.792Z,9.66
2023-04-24T07:50:45.696Z,9.86
2023-04-24T07:55:47.356Z,9.64
2023-04-24T08:00:48.975Z,9.71
2023-04-24T08:05:52.072Z,9.40
2023-04-24T08:10:53.905Z,9.55
2023-04-24T08:15:55.628Z,9.32
2023-04-24T08:21:02.205Z,9.26
2023-04-24T08:26:04.546Z,9.29
2023-04-24T08:31:06.501Z,9.19
2023-04-24T08:36:08.656Z,9.31
2023-04-24T08:41:11.144Z,9.55
2023-04-24T08:46:16.877Z,9.28
2023-04-24T08:51:19.185Z,9.31
2023-04-24T08:56:24.478Z,9.53
2023-04-24T09:01:26.457Z,9.40
2023-04-24T09:06:29.087Z,9.55
2023-04-24T09:11:32.901Z,9.37
2023-04-24T09:16:37.018Z,9.44
2023-04-24T09:21:41.385Z,9.20
2023-04-24T09:26:50.055Z,9.32
2023-04-24T09:31:52.284Z,9.60
2023-04-24T09:36:54.827Z,9.77
2023-04-24T09:42:01.934Z,9.77
2023-04-24T09:47:03.600Z,9.58
2023-04-24T09:52:10.956Z,9.50
2023-04-24T09:57:15.774Z,9.51
2023-04-24T10:02:21.471Z,9.32
2023-04-24T10:07:23.766Z,9.23
2023-04-24T10:12:26.484Z,9.30
2023-04-24T10:17:29.491Z,9.28
2023-04-24T10:22:31.542Z,9.65
2023-04-24T10:27:33.384Z,9.86
2023-04-24T10:32:35.054Z,10.22
2023-04-24T10:37:40.796Z,10.15
2023-04-24T10:42:49.461Z,9.91
2023-04-24T10:48:07.689Z,10.00
2023-04-24T10:53:15.773Z,10.10
2023-04-24T10:58:22.784Z,10.23
2023-04-24T11:03:27.545Z,10.51
2023-04-24T11:08:39.045Z,10.99
2023-04-24T11:13:56.447Z,10.65
2023-04-24T11:19:02.062Z,10.74
2023-04-24T11:24:28.966Z,10.84
2023-04-24T11:29:45.015Z,10.81
2023-04-24T11:34:48.729Z,10.99
2023-04-24T11:39:59.617Z,10.90
2023-04-24T11:45:03.079Z,11.36
2023-04-24T11:50:08.635Z,11.10
2023-04-24T11:55:31.206Z,10.63
2023-04-24T12:00:35.386Z,10.44
2023-04-24T12:05:37.693Z,10.29
2023-04-24T12:10:39.989Z,10.39
2023-04-24T12:15:43.079Z,10.60
2023-04-24T12:20:44.897Z,11.52
2023-04-24T12:25:46.504Z,11.12
2023-04-24T12:30:49.951Z,11.13
2023-04-24T12:35:55.554Z,10.69
2023-04-24T12:41:05.526Z,10.82
2023-04-24T12:46:07.111Z,10.73
2023-04-24T12:51:08.732Z,10.86
2023-04-24T12:56:19.484Z,11.40
2023-04-24T13:01:21.142Z,11.82
2023-04-24T13:06:22.870Z,11.63
2023-04-24T13:11:25.457Z,11.46
2023-04-24T13:16:27.104Z,11.04
2023-04-24T13:21:31.244Z,11.43
2023-04-24T13:26:32.889Z,11.57
2023-04-24T13:31:34.569Z,11.54
2023-04-24T13:36:36.280Z,11.24
2023-04-24T13:41:37.947Z,10.95
2023-04-24T13:46:41.988Z,10.96
2023-04-24T13:51:44.640Z,11.35
2023-04-24T13:56:46.424Z,11.65
2023-04-24T14:01:48.926Z,11.88
2023-04-24T14:06:51.496Z,11.78
2023-04-24T14:11:53.465Z,11.61
2023-04-24T14:16:55.125Z,11.50
2023-04-24T14:21:57.897Z,11.46
2023-04-24T14:26:59.545Z,11.58
2023-04-24T14:32:01.310Z,11.77
2023-04-24T14:37:03.368Z,12.02
2023-04-24T14:42:05.010Z,12.36
2023-04-24T14:47:06.954Z,11.84
2023-04-24T14:52:08.635Z,12.29
2023-04-24T14:57:10.357Z,12.00
2023-04-24T15:02:16.326Z,11.41
2023-04-24T15:07:18.557Z,11.32
2023-04-24T15:12:22.597Z,11.97
2023-04-24T15:17:24.331Z,11.84
2023-04-24T15:22:27.099Z,11.57
2023-04-24T15:27:28.756Z,11.52
2023-04-24T15:32:30.543Z,11.69
2023-04-24T15:37:32.362Z,11.06
2023-04-24T15:42:34.061Z,11.75
2023-04-24T15:47:36.366Z,11.99
2023-04-24T15:52:38.094Z,11.84
2023-04-24T15:57:40.352Z,11.73
2023-04-24T16:02:45.373Z,11.46
2023-04-24T16:07:48.616Z,11.79
2023-04-24T16:12:51.782Z,11.22
2023-04-24T16:17:53.401Z,10.71
2023-04-24T16:22:55.061Z,10.58
2023-04-24T16:27:57.212Z,10.32
2023-04-24T16:32:59.097Z,10.53
2023-04-24T16:38:02.304Z,10.68
2023-04-24T16:43:03.984Z,10.79
2023-04-24T16:48:05.807Z,10.46
2023-04-24T16:53:07.551Z,10.59
2023-04-24T16:58:09.235Z,10.49
2023-04-24T17:03:12.420Z,10.47
2023-04-24T17:08:15.002Z,10.19
2023-04-24T17:13:16.625Z,10.31
2023-04-24T17:18:18.396Z,10.20
2023-04-24T17:23:21.077Z,10.31
2023-04-24T17:28:31.148Z,10.30
2023-04-24T17:33:32.982Z,10.48
2023-04-24T17:38:34.812Z,10.36
2023-04-24T17:43:38.339Z,10.37
2023-04-24T17:48:40.128Z,10.48
2023-04-24T17:53:43.489Z,10.44
2023-04-24T17:58:45.455Z,10.19
2023-04-24T18:03:47.393Z,10.45
2023-04-24T18:08:49.375Z,9.98
2023-04-24T18:13:51.483Z,10.07
2023-04-24T18:18:53.990Z,10.11
2023-04-24T18:23:55.849Z,9.81
2023-04-24T18:28:57.526Z,9.60
2023-04-24T18:33:59.241Z,9.65
2023-04-24T18:39:00.920Z,9.76
2023-04-24T18:44:02.529Z,9.75
2023-04-24T18:49:04.552Z,9.99
2023-04-24T18:54:06.243Z,9.78
2023-04-24T18:59:07.957Z,9.51
2023-04-24T19:04:09.557Z,10.46
2023-04-24T19:09:11.150Z,9.80
2023-04-24T19:14:16.318Z,9.95
2023-04-24T19:19:18.039Z,9.47
2023-04-24T19:24:21.169Z,9.23
2023-04-24T19:29:22.961Z,9.25
2023-04-24T19:34:25.224Z,9.11
2023-04-24T19:39:26.984Z,9.25
2023-04-24T19:44:28.637Z,9.50
2023-04-24T19:49:30.946Z,9.65
2023-04-24T19:54:32.518Z,9.48
2023-04-24T19:59:34.190Z,9.36
2023-04-24T20:04:36.126Z,9.70
2023-04-24T20:09:38.113Z,9.36
2023-04-24T20:14:39.732Z,9.05
2023-04-24T20:19:44.678Z,9.07
2023-04-24T20:24:46.566Z,9.25
2023-04-24T20:29:48.199Z,9.02
2023-04-24T20:34:49.872Z,8.90
2023-04-24T20:39:52.057Z,8.96
2023-04-24T20:44:53.689Z,9.01
2023-04-24T20:49:55.361Z,9.07
2023-04-24T20:54:57.173Z,9.14
2023-04-24T20:59:58.891Z,9.31
2023-04-24T21:05:04.124Z,8.82
2023-04-24T21:10:06.330Z,8.97
2023-04-24T21:15:08.392Z,8.59
2023-04-24T21:20:10.561Z,8.43
2023-04-24T21:25:12.258Z,8.46
2023-04-24T21:30:15.122Z,8.46
2023-04-24T21:35:16.764Z,8.49
2023-04-24T21:40:18.508Z,8.49
2023-04-24T21:45:20.569Z,8.40
2023-04-24T21:50:22.163Z,8.67
2023-04-24T21:55:24.142Z,8.48
2023-04-24T22:00:25.933Z,8.51
2023-04-24T22:05:27.836Z,8.51
2023-04-24T22:10:29.725Z,8.59
2023-04-24T22:15:31.536Z,8.44
2023-04-24T22:20:33.607Z,8.37
2023-04-24T22:25:35.521Z,8.37
2023-04-24T22:30:37.177Z,8.74
2023-04-24T22:35:38.792Z,8.74
2023-04-24T22:40:42.494Z,8.65
2023-04-24T22:45:44.203Z,8.97
2023-04-24T22:50:45.970Z,8.80
2023-04-24T22:55:47.572Z,8.28
2023-04-24T23:00:49.270Z,8.25
2023-04-24T23:05:50.897Z,8.33
2023-04-24T23:10:52.972Z,8.27
2023-04-24T23:15:54.917Z,8.08
2023-04-24T23:20:57.282Z,8.06
2023-04-24T23:25:59.758Z,8.06
2023-04-24T23:31:01.385Z,8.07
2023-04-24T23:36:03.379Z,8.25
2023-04-24T23:41:05.105Z,8.34
2023-04-24T23:46:07.399Z,8.33
2023-04-24T23:51:09.109Z,8.18
2023-04-24T23:56:11.291Z,7.96
